This is the latest recevied weather packets stored in our database for station/object KU9TRY. If no packets are shown the sender has not sent any weather packets the latest 10 day(s).
| Time | Temp. | Humidity | Pressure | Rain* | Wind** | Luminosity | Snow |
|---|---|---|---|---|---|---|---|
| 1788020761 | 31.11° C | 55% | 1021 hPa | 0 mm | - | 884 W/m² | - |
| 1788020461 | 30.56° C | 59% | 1020.9 hPa | 0 mm | - | 876 W/m² | - |
| 1788020156 | 30.56° C | 57% | 1021 hPa | 0 mm | - | 870 W/m² | - |
| 1788019852 | 31.11° C | 58% | 1021 hPa | 0 mm | - | 863 W/m² | - |
| 1788019551 | 31.11° C | 58% | 1021 hPa | 0 mm | - | 848 W/m² | - |
| 1788019251 | 30.56° C | 61% | 1021.2 hPa | 0 mm | - | 843 W/m² | - |
| 1788018949 | 30° C | 63% | 1021.1 hPa | 0 mm | - | 833 W/m² | - |
| 1788018644 | 30° C | 61% | 1021 hPa | 0 mm | - | 826 W/m² | - |
| 1788018343 | 30° C | 60% | 1020.9 hPa | 0 mm | - | 817 W/m² | - |
| 1788018038 | 30° C | 61% | 1021 hPa | 0 mm | - | 802 W/m² | - |
| 1788017735 | 30° C | 61% | 1021 hPa | 0 mm | - | 688 W/m² | - |
| 1788017432 | 29.44° C | 61% | 1021.2 hPa | 0 mm | - | 771 W/m² | - |
| 1788016526 | 28.89° C | 64% | 1021.3 hPa | 0 mm | - | 719 W/m² | - |
| 1788016220 | 28.89° C | 64% | 1021.3 hPa | 0 mm | - | 719 W/m² | - |
| 1788015314 | 28.33° C | 66% | 1021.3 hPa | 0 mm | - | 655 W/m² | - |
| 1788015014 | 28.33° C | 66% | 1021.3 hPa | 0 mm | - | 655 W/m² | - |
| 1788014714 | 27.78° C | 66% | 1021.2 hPa | 0 mm | - | 648 W/m² | - |
| 1788014409 | 27.22° C | 66% | 1021.2 hPa | 0 mm | - | 630 W/m² | - |
| 1788014104 | 27.22° C | 68% | 1021.2 hPa | 0 mm | - | 613 W/m² | - |
| 1788013802 | 27.22° C | 68% | 1021.3 hPa | 0 mm | - | 593 W/m² | - |
| 1788013497 | 27.22° C | 66% | 1021.2 hPa | 0 mm | - | 569 W/m² | - |
| 1788013197 | 26.11° C | 70% | 1021.3 hPa | 0 mm | - | 530 W/m² | - |
| 1788012891 | 26.11° C | 70% | 1021.5 hPa | 0 mm | - | 530 W/m² | - |
| 1788012591 | 26.11° C | 72% | 1021.4 hPa | 0 mm | - | 519 W/m² | - |
| 1788012286 | 25° C | 75% | 1021.1 hPa | 0 mm | - | 496 W/m² | - |
* Rain latest hour (hover to see other rain measurements)
** Current wind speed in m/s (hover to see current wind gust speed)